sensor_id;sensor_type;location;lat;lon;timestamp;P1;P2;P0
49343;PMS5003;35210;41.606;-87.602;2023-08-07T00:00:33;13.20;11.40;8.20
49343;PMS5003;35210;41.606;-87.602;2023-08-07T00:03:02;12.60;12.60;8.20
49343;PMS5003;35210;41.606;-87.602;2023-08-07T00:05:30;12.60;12.00;8.80
49343;PMS5003;35210;41.606;-87.602;2023-08-07T00:07:58;11.00;10.20;6.40
49343;PMS5003;35210;41.606;-87.602;2023-08-07T00:10:28;13.40;13.00;9.20
49343;PMS5003;35210;41.606;-87.602;2023-08-07T00:12:57;12.60;11.20;7.80
49343;PMS5003;35210;41.606;-87.602;2023-08-07T00:15:25;15.80;13.40;9.40
49343;PMS5003;35210;41.606;-87.602;2023-08-07T00:17:53;12.00;12.00;9.00
49343;PMS5003;35210;41.606;-87.602;2023-08-07T00:20:22;13.40;13.40;8.20
49343;PMS5003;35210;41.606;-87.602;2023-08-07T00:22:50;11.80;11.80;7.40
49343;PMS5003;35210;41.606;-87.602;2023-08-07T00:25:18;15.40;14.80;10.40
49343;PMS5003;35210;41.606;-87.602;2023-08-07T00:27:47;16.00;13.40;9.40
49343;PMS5003;35210;41.606;-87.602;2023-08-07T00:30:17;16.00;16.00;10.80
49343;PMS5003;35210;41.606;-87.602;2023-08-07T00:32:47;15.00;15.00;9.20
49343;PMS5003;35210;41.606;-87.602;2023-08-07T00:35:15;13.40;11.80;8.00
49343;PMS5003;35210;41.606;-87.602;2023-08-07T00:37:45;12.20;11.60;6.60
49343;PMS5003;35210;41.606;-87.602;2023-08-07T00:40:13;15.60;15.60;10.40
49343;PMS5003;35210;41.606;-87.602;2023-08-07T00:42:41;13.40;13.40;8.60
49343;PMS5003;35210;41.606;-87.602;2023-08-07T00:45:10;22.20;16.40;11.60
49343;PMS5003;35210;41.606;-87.602;2023-08-07T00:47:39;20.40;17.40;11.20
49343;PMS5003;35210;41.606;-87.602;2023-08-07T00:50:08;16.20;16.00;11.00
49343;PMS5003;35210;41.606;-87.602;2023-08-07T00:52:37;18.00;16.80;10.40
49343;PMS5003;35210;41.606;-87.602;2023-08-07T00:55:05;17.40;16.40;11.40
49343;PMS5003;35210;41.606;-87.602;2023-08-07T00:57:36;21.20;16.40;10.40
49343;PMS5003;35210;41.606;-87.602;2023-08-07T01:00:05;16.80;14.40;9.80
49343;PMS5003;35210;41.606;-87.602;2023-08-07T01:02:35;16.40;12.80;8.80
49343;PMS5003;35210;41.606;-87.602;2023-08-07T01:05:05;19.80;17.60;11.20
49343;PMS5003;35210;41.606;-87.602;2023-08-07T01:07:34;17.60;16.20;10.00
49343;PMS5003;35210;41.606;-87.602;2023-08-07T01:10:02;16.80;14.40;10.80
49343;PMS5003;35210;41.606;-87.602;2023-08-07T01:12:33;16.40;14.80;9.60
49343;PMS5003;35210;41.606;-87.602;2023-08-07T01:15:10;15.40;15.40;10.20
49343;PMS5003;35210;41.606;-87.602;2023-08-07T01:17:42;21.60;19.80;12.40
49343;PMS5003;35210;41.606;-87.602;2023-08-07T01:20:15;21.40;18.00;11.00
49343;PMS5003;35210;41.606;-87.602;2023-08-07T01:22:45;19.20;17.80;11.20
49343;PMS5003;35210;41.606;-87.602;2023-08-07T01:25:13;17.60;17.60;11.80
49343;PMS5003;35210;41.606;-87.602;2023-08-07T01:27:43;18.00;17.00;11.20
49343;PMS5003;35210;41.606;-87.602;2023-08-07T01:30:17;18.60;17.20;12.20
49343;PMS5003;35210;41.606;-87.602;2023-08-07T01:32:54;17.60;15.80;9.80
49343;PMS5003;35210;41.606;-87.602;2023-08-07T01:35:33;18.00;18.00;11.60
49343;PMS5003;35210;41.606;-87.602;2023-08-07T01:38:07;17.60;15.40;9.00
49343;PMS5003;35210;41.606;-87.602;2023-08-07T01:40:38;17.80;17.80;8.80
49343;PMS5003;35210;41.606;-87.602;2023-08-07T01:43:08;18.40;16.40;10.60
49343;PMS5003;35210;41.606;-87.602;2023-08-07T01:45:36;12.40;12.40;7.40
49343;PMS5003;35210;41.606;-87.602;2023-08-07T01:48:05;15.20;13.00;9.40
49343;PMS5003;35210;41.606;-87.602;2023-08-07T01:50:33;15.20;15.20;10.20
49343;PMS5003;35210;41.606;-87.602;2023-08-07T01:53:03;13.80;13.20;9.40
49343;PMS5003;35210;41.606;-87.602;2023-08-07T01:55:32;15.40;15.40;10.20
49343;PMS5003;35210;41.606;-87.602;2023-08-07T01:58:01;16.60;16.40;10.40
49343;PMS5003;35210;41.606;-87.602;2023-08-07T02:00:30;15.00;14.00;10.00
49343;PMS5003;35210;41.606;-87.602;2023-08-07T02:02:58;15.00;13.80;8.80
49343;PMS5003;35210;41.606;-87.602;2023-08-07T02:05:26;17.40;15.40;10.20
49343;PMS5003;35210;41.606;-87.602;2023-08-07T02:07:55;12.80;12.00;8.40
49343;PMS5003;35210;41.606;-87.602;2023-08-07T02:10:23;13.20;13.00;9.40
49343;PMS5003;35210;41.606;-87.602;2023-08-07T02:12:53;15.20;15.20;10.60
49343;PMS5003;35210;41.606;-87.602;2023-08-07T02:15:22;17.00;14.80;9.20
49343;PMS5003;35210;41.606;-87.602;2023-08-07T02:17:50;33.00;28.80;19.20
49343;PMS5003;35210;41.606;-87.602;2023-08-07T02:20:19;29.60;25.20;16.00
49343;PMS5003;35210;41.606;-87.602;2023-08-07T02:22:48;17.60;17.60;13.00
49343;PMS5003;35210;41.606;-87.602;2023-08-07T02:25:16;19.00;17.40;12.80
49343;PMS5003;35210;41.606;-87.602;2023-08-07T02:27:45;46.00;38.50;26.50
49343;PMS5003;35210;41.606;-87.602;2023-08-07T02:30:15;29.40;28.00;18.00
49343;PMS5003;35210;41.606;-87.602;2023-08-07T02:32:43;20.80;20.80;14.20
49343;PMS5003;35210;41.606;-87.602;2023-08-07T02:35:12;18.60;17.60;11.80
49343;PMS5003;35210;41.606;-87.602;2023-08-07T02:37:41;18.20;15.60;11.60
49343;PMS5003;35210;41.606;-87.602;2023-08-07T02:40:11;29.20;25.40;17.40
49343;PMS5003;35210;41.606;-87.602;2023-08-07T02:42:41;62.00;46.00;29.25
49343;PMS5003;35210;41.606;-87.602;2023-08-07T02:45:09;55.00;43.50;27.25
49343;PMS5003;35210;41.606;-87.602;2023-08-07T02:47:40;64.00;49.25;30.75
49343;PMS5003;35210;41.606;-87.602;2023-08-07T02:50:09;58.00;44.00;27.00
49343;PMS5003;35210;41.606;-87.602;2023-08-07T02:52:37;44.40;36.20;21.60
49343;PMS5003;35210;41.606;-87.602;2023-08-07T02:55:05;33.80;30.60;19.60
49343;PMS5003;35210;41.606;-87.602;2023-08-07T02:57:34;44.80;31.60;20.00
49343;PMS5003;35210;41.606;-87.602;2023-08-07T03:00:03;42.00;32.20;20.00
49343;PMS5003;35210;41.606;-87.602;2023-08-07T03:02:32;39.20;30.80;20.00
49343;PMS5003;35210;41.606;-87.602;2023-08-07T03:05:02;30.20;25.80;15.20
49343;PMS5003;35210;41.606;-87.602;2023-08-07T03:07:31;28.60;26.00;17.00
49343;PMS5003;35210;41.606;-87.602;2023-08-07T03:09:59;32.40;28.80;16.40
49343;PMS5003;35210;41.606;-87.602;2023-08-07T03:12:27;24.20;20.80;12.80
49343;PMS5003;35210;41.606;-87.602;2023-08-07T03:14:55;24.80;20.40;15.60
49343;PMS5003;35210;41.606;-87.602;2023-08-07T03:17:23;24.40;20.20;12.40
49343;PMS5003;35210;41.606;-87.602;2023-08-07T03:19:51;17.80;17.40;11.00
49343;PMS5003;35210;41.606;-87.602;2023-08-07T03:22:21;13.80;12.00;8.00
49343;PMS5003;35210;41.606;-87.602;2023-08-07T03:24:49;15.00;13.80;8.80
49343;PMS5003;35210;41.606;-87.602;2023-08-07T03:27:17;26.60;25.00;15.40
49343;PMS5003;35210;41.606;-87.602;2023-08-07T03:29:46;36.20;31.20;19.20
49343;PMS5003;35210;41.606;-87.602;2023-08-07T03:32:14;49.75;40.25;23.50
49343;PMS5003;35210;41.606;-87.602;2023-08-07T03:34:42;69.75;51.00;29.75
49343;PMS5003;35210;41.606;-87.602;2023-08-07T03:37:10;56.25;42.00;26.00
49343;PMS5003;35210;41.606;-87.602;2023-08-07T03:39:40;49.80;40.80;26.20
49343;PMS5003;35210;41.606;-87.602;2023-08-07T03:42:13;77.25;56.50;34.25
49343;PMS5003;35210;41.606;-87.602;2023-08-07T03:44:42;60.00;47.25;29.00
49343;PMS5003;35210;41.606;-87.602;2023-08-07T03:47:10;54.00;43.00;26.75
49343;PMS5003;35210;41.606;-87.602;2023-08-07T03:49:39;21.60;20.40;13.20
49343;PMS5003;35210;41.606;-87.602;2023-08-07T03:52:07;16.20;16.20;12.00
49343;PMS5003;35210;41.606;-87.602;2023-08-07T03:54:35;52.25;43.75;27.50
49343;PMS5003;35210;41.606;-87.602;2023-08-07T03:57:05;45.75;38.00;24.75
49343;PMS5003;35210;41.606;-87.602;2023-08-07T03:59:34;63.25;51.00;33.25
49343;PMS5003;35210;41.606;-87.602;2023-08-07T04:02:02;67.00;54.50;35.00
49343;PMS5003;35210;41.606;-87.602;2023-08-07T04:04:30;67.00;55.75;35.25
49343;PMS5003;35210;41.606;-87.602;2023-08-07T04:06:58;52.50;40.50;27.25
49343;PMS5003;35210;41.606;-87.602;2023-08-07T04:09:26;30.20;24.40;16.00
49343;PMS5003;35210;41.606;-87.602;2023-08-07T04:11:54;25.80;23.60;16.60
49343;PMS5003;35210;41.606;-87.602;2023-08-07T04:14:24;30.00;26.80;18.60
49343;PMS5003;35210;41.606;-87.602;2023-08-07T04:16:53;26.80;23.00;15.20
49343;PMS5003;35210;41.606;-87.602;2023-08-07T04:19:21;25.80;23.60;16.80
49343;PMS5003;35210;41.606;-87.602;2023-08-07T04:21:50;12.80;11.60;7.20
49343;PMS5003;35210;41.606;-87.602;2023-08-07T04:24:18;26.60;20.40;12.80
49343;PMS5003;35210;41.606;-87.602;2023-08-07T04:26:46;36.40;30.40;18.00
49343;PMS5003;35210;41.606;-87.602;2023-08-07T04:29:14;28.40;24.00;15.60
49343;PMS5003;35210;41.606;-87.602;2023-08-07T04:31:44;41.80;32.40;21.40
49343;PMS5003;35210;41.606;-87.602;2023-08-07T04:34:13;35.40;33.00;26.20
49343;PMS5003;35210;41.606;-87.602;2023-08-07T04:36:41;73.00;56.50;35.50
49343;PMS5003;35210;41.606;-87.602;2023-08-07T04:39:09;69.00;54.50;36.00
49343;PMS5003;35210;41.606;-87.602;2023-08-07T04:41:38;56.00;46.50;30.75
49343;PMS5003;35210;41.606;-87.602;2023-08-07T04:44:06;61.00;44.75;28.00
49343;PMS5003;35210;41.606;-87.602;2023-08-07T04:46:37;50.00;38.25;25.75
49343;PMS5003;35210;41.606;-87.602;2023-08-07T04:49:08;64.75;49.75;31.25
49343;PMS5003;35210;41.606;-87.602;2023-08-07T04:51:36;65.75;51.00;31.50
49343;PMS5003;35210;41.606;-87.602;2023-08-07T04:54:04;34.60;28.20;13.00
49343;PMS5003;35210;41.606;-87.602;2023-08-07T04:56:32;34.00;31.00;19.80
49343;PMS5003;35210;41.606;-87.602;2023-08-07T04:59:01;26.60;21.60;13.40
49343;PMS5003;35210;41.606;-87.602;2023-08-07T05:01:29;9.00;8.20;6.80
49343;PMS5003;35210;41.606;-87.602;2023-08-07T05:03:57;7.00;6.40;4.20
49343;PMS5003;35210;41.606;-87.602;2023-08-07T05:06:26;7.20;7.20;5.80
49343;PMS5003;35210;41.606;-87.602;2023-08-07T05:08:55;12.20;9.60;6.60
49343;PMS5003;35210;41.606;-87.602;2023-08-07T05:11:23;9.80;8.20;7.20
49343;PMS5003;35210;41.606;-87.602;2023-08-07T05:13:51;7.60;7.60;4.60
49343;PMS5003;35210;41.606;-87.602;2023-08-07T05:16:19;6.20;6.20;4.00
49343;PMS5003;35210;41.606;-87.602;2023-08-07T05:18:48;6.00;4.80;3.00
49343;PMS5003;35210;41.606;-87.602;2023-08-07T05:21:17;3.00;3.00;1.40
49343;PMS5003;35210;41.606;-87.602;2023-08-07T05:23:46;5.60;5.60;3.00
49343;PMS5003;35210;41.606;-87.602;2023-08-07T05:26:18;7.00;6.80;5.00
49343;PMS5003;35210;41.606;-87.602;2023-08-07T05:28:46;9.20;7.80;5.80
49343;PMS5003;35210;41.606;-87.602;2023-08-07T05:31:15;8.20;7.80;5.40
49343;PMS5003;35210;41.606;-87.602;2023-08-07T05:33:43;3.00;3.00;2.00
49343;PMS5003;35210;41.606;-87.602;2023-08-07T05:36:11;6.40;6.40;4.00
49343;PMS5003;35210;41.606;-87.602;2023-08-07T05:38:39;5.00;5.00;4.00
49343;PMS5003;35210;41.606;-87.602;2023-08-07T05:41:10;4.80;4.80;4.00
49343;PMS5003;35210;41.606;-87.602;2023-08-07T05:43:38;4.80;3.80;2.60
49343;PMS5003;35210;41.606;-87.602;2023-08-07T05:46:08;4.00;4.00;3.00
49343;PMS5003;35210;41.606;-87.602;2023-08-07T05:48:36;5.00;4.00;2.60
49343;PMS5003;35210;41.606;-87.602;2023-08-07T05:51:04;5.60;5.60;4.00
49343;PMS5003;35210;41.606;-87.602;2023-08-07T05:53:33;7.20;5.60;3.80
49343;PMS5003;35210;41.606;-87.602;2023-08-07T05:56:02;10.40;10.40;7.40
49343;PMS5003;35210;41.606;-87.602;2023-08-07T05:58:36;6.00;6.00;6.00
49343;PMS5003;35210;41.606;-87.602;2023-08-07T06:01:04;9.00;9.00;5.60
49343;PMS5003;35210;41.606;-87.602;2023-08-07T06:03:33;9.80;7.40;4.20
49343;PMS5003;35210;41.606;-87.602;2023-08-07T06:06:01;10.80;8.20;4.60
49343;PMS5003;35210;41.606;-87.602;2023-08-07T06:08:30;5.60;5.60;4.20
49343;PMS5003;35210;41.606;-87.602;2023-08-07T06:10:58;6.80;6.00;4.00
49343;PMS5003;35210;41.606;-87.602;2023-08-07T06:13:29;4.00;4.00;2.80
49343;PMS5003;35210;41.606;-87.602;2023-08-07T06:15:59;2.80;2.80;2.60
49343;PMS5003;35210;41.606;-87.602;2023-08-07T06:18:28;7.00;5.00;2.80
49343;PMS5003;35210;41.606;-87.602;2023-08-07T06:20:56;4.60;3.20;2.60
49343;PMS5003;35210;41.606;-87.602;2023-08-07T06:23:25;3.40;3.00;2.00
49343;PMS5003;35210;41.606;-87.602;2023-08-07T06:25:53;3.40;3.00;2.00
49343;PMS5003;35210;41.606;-87.602;2023-08-07T06:28:22;4.40;3.80;2.20
49343;PMS5003;35210;41.606;-87.602;2023-08-07T06:30:50;5.00;4.20;3.00
49343;PMS5003;35210;41.606;-87.602;2023-08-07T06:33:21;4.00;2.60;1.80
49343;PMS5003;35210;41.606;-87.602;2023-08-07T06:35:52;3.40;2.80;1.80
49343;PMS5003;35210;41.606;-87.602;2023-08-07T06:38:20;2.00;2.00;1.80
49343;PMS5003;35210;41.606;-87.602;2023-08-07T06:40:48;5.00;3.80;2.40
49343;PMS5003;35210;41.606;-87.602;2023-08-07T06:43:16;3.40;2.80;2.20
49343;PMS5003;35210;41.606;-87.602;2023-08-07T06:45:46;2.00;1.00;0.00
49343;PMS5003;35210;41.606;-87.602;2023-08-07T06:48:14;2.00;2.00;1.20
49343;PMS5003;35210;41.606;-87.602;2023-08-07T06:50:44;2.80;1.60;1.60
49343;PMS5003;35210;41.606;-87.602;2023-08-07T06:53:13;3.60;3.60;2.00
49343;PMS5003;35210;41.606;-87.602;2023-08-07T06:55:43;1.80;1.80;1.80
49343;PMS5003;35210;41.606;-87.602;2023-08-07T06:58:11;5.60;4.00;2.20
49343;PMS5003;35210;41.606;-87.602;2023-08-07T07:00:40;2.80;2.80;2.00
49343;PMS5003;35210;41.606;-87.602;2023-08-07T07:03:08;4.00;3.00;2.00
49343;PMS5003;35210;41.606;-87.602;2023-08-07T07:05:36;5.20;3.20;2.20
49343;PMS5003;35210;41.606;-87.602;2023-08-07T07:08:06;3.40;3.40;2.00
49343;PMS5003;35210;41.606;-87.602;2023-08-07T07:10:34;1.80;1.80;1.60
49343;PMS5003;35210;41.606;-87.602;2023-08-07T07:13:02;1.00;1.00;1.00
49343;PMS5003;35210;41.606;-87.602;2023-08-07T07:15:31;0.80;0.80;0.00
49343;PMS5003;35210;41.606;-87.602;2023-08-07T07:17:59;2.20;2.00;2.00
49343;PMS5003;35210;41.606;-87.602;2023-08-07T07:20:27;3.40;3.40;2.00
49343;PMS5003;35210;41.606;-87.602;2023-08-07T07:22:55;3.20;3.20;2.00
49343;PMS5003;35210;41.606;-87.602;2023-08-07T07:25:24;1.80;1.80;1.20
49343;PMS5003;35210;41.606;-87.602;2023-08-07T07:27:53;2.80;2.80;2.00
49343;PMS5003;35210;41.606;-87.602;2023-08-07T07:30:21;3.00;3.00;1.80
49343;PMS5003;35210;41.606;-87.602;2023-08-07T07:32:49;2.60;2.60;2.00
49343;PMS5003;35210;41.606;-87.602;2023-08-07T07:35:18;2.00;2.00;1.40
49343;PMS5003;35210;41.606;-87.602;2023-08-07T07:37:46;2.80;2.20;1.60
49343;PMS5003;35210;41.606;-87.602;2023-08-07T07:40:14;2.00;2.00;1.80
49343;PMS5003;35210;41.606;-87.602;2023-08-07T07:42:44;5.00;4.00;2.40
49343;PMS5003;35210;41.606;-87.602;2023-08-07T07:45:12;3.20;2.20;1.40
49343;PMS5003;35210;41.606;-87.602;2023-08-07T07:47:40;2.80;2.80;2.00
49343;PMS5003;35210;41.606;-87.602;2023-08-07T07:50:08;4.00;4.00;2.60
49343;PMS5003;35210;41.606;-87.602;2023-08-07T07:52:38;3.40;3.40;3.00
49343;PMS5003;35210;41.606;-87.602;2023-08-07T07:55:06;4.20;3.60;2.60
49343;PMS5003;35210;41.606;-87.602;2023-08-07T07:57:35;4.00;1.40;1.20
49343;PMS5003;35210;41.606;-87.602;2023-08-07T08:00:06;3.00;3.00;2.00
49343;PMS5003;35210;41.606;-87.602;2023-08-07T08:02:35;4.80;3.00;2.00
49343;PMS5003;35210;41.606;-87.602;2023-08-07T08:05:04;3.60;3.60;2.40
49343;PMS5003;35210;41.606;-87.602;2023-08-07T08:07:32;3.00;2.60;2.40
49343;PMS5003;35210;41.606;-87.602;2023-08-07T08:10:01;3.60;2.80;2.00
49343;PMS5003;35210;41.606;-87.602;2023-08-07T08:12:30;5.20;3.00;3.00
49343;PMS5003;35210;41.606;-87.602;2023-08-07T08:14:58;5.40;5.40;3.40
49343;PMS5003;35210;41.606;-87.602;2023-08-07T08:17:27;4.20;4.20;2.80
49343;PMS5003;35210;41.606;-87.602;2023-08-07T08:19:56;6.00;4.60;3.00
49343;PMS5003;35210;41.606;-87.602;2023-08-07T08:22:24;5.00;5.00;3.60
49343;PMS5003;35210;41.606;-87.602;2023-08-07T08:24:52;4.00;4.00;3.40
49343;PMS5003;35210;41.606;-87.602;2023-08-07T08:27:20;7.00;4.80;1.60
49343;PMS5003;35210;41.606;-87.602;2023-08-07T08:29:48;3.00;2.80;1.60
49343;PMS5003;35210;41.606;-87.602;2023-08-07T08:32:16;3.00;3.00;1.80
49343;PMS5003;35210;41.606;-87.602;2023-08-07T08:34:46;8.00;5.00;3.20
49343;PMS5003;35210;41.606;-87.602;2023-08-07T08:37:15;9.00;4.20;2.40
49343;PMS5003;35210;41.606;-87.602;2023-08-07T08:39:43;5.00;4.80;3.00
49343;PMS5003;35210;41.606;-87.602;2023-08-07T08:42:11;6.40;6.40;4.00
49343;PMS5003;35210;41.606;-87.602;2023-08-07T08:44:40;6.20;5.20;4.00
49343;PMS5003;35210;41.606;-87.602;2023-08-07T08:47:10;4.40;4.20;2.00
49343;PMS5003;35210;41.606;-87.602;2023-08-07T08:49:44;7.20;5.60;4.00
49343;PMS5003;35210;41.606;-87.602;2023-08-07T08:52:17;5.60;5.00;2.60
49343;PMS5003;35210;41.606;-87.602;2023-08-07T08:54:46;3.00;2.20;1.00
49343;PMS5003;35210;41.606;-87.602;2023-08-07T08:57:15;5.60;4.40;3.00
49343;PMS5003;35210;41.606;-87.602;2023-08-07T08:59:44;5.80;4.60;3.80
49343;PMS5003;35210;41.606;-87.602;2023-08-07T09:02:13;5.00;5.00;3.00
49343;PMS5003;35210;41.606;-87.602;2023-08-07T09:04:41;4.00;4.00;3.00
49343;PMS5003;35210;41.606;-87.602;2023-08-07T09:07:10;5.00;4.00;2.80
49343;PMS5003;35210;41.606;-87.602;2023-08-07T09:09:42;5.00;5.00;3.40
49343;PMS5003;35210;41.606;-87.602;2023-08-07T09:12:13;6.20;5.20;4.00
49343;PMS5003;35210;41.606;-87.602;2023-08-07T09:14:44;7.60;7.60;4.40
49343;PMS5003;35210;41.606;-87.602;2023-08-07T09:17:15;7.40;6.40;5.00
49343;PMS5003;35210;41.606;-87.602;2023-08-07T09:19:43;8.20;8.00;4.80
49343;PMS5003;35210;41.606;-87.602;2023-08-07T09:22:14;7.00;6.80;4.60
49343;PMS5003;35210;41.606;-87.602;2023-08-07T09:24:42;7.40;7.40;5.00
49343;PMS5003;35210;41.606;-87.602;2023-08-07T09:27:11;8.00;7.60;6.40
49343;PMS5003;35210;41.606;-87.602;2023-08-07T09:29:39;9.80;8.00;6.00
49343;PMS5003;35210;41.606;-87.602;2023-08-07T09:32:08;8.80;8.40;4.80
49343;PMS5003;35210;41.606;-87.602;2023-08-07T09:34:36;7.80;7.80;5.00
49343;PMS5003;35210;41.606;-87.602;2023-08-07T09:37:07;8.00;8.00;5.40
49343;PMS5003;35210;41.606;-87.602;2023-08-07T09:39:37;8.60;8.40;6.00
49343;PMS5003;35210;41.606;-87.602;2023-08-07T09:42:05;9.00;9.00;6.40
49343;PMS5003;35210;41.606;-87.602;2023-08-07T09:44:41;7.60;7.60;5.00
49343;PMS5003;35210;41.606;-87.602;2023-08-07T09:47:13;8.40;6.40;4.80
49343;PMS5003;35210;41.606;-87.602;2023-08-07T09:49:42;9.60;8.20;5.80
49343;PMS5003;35210;41.606;-87.602;2023-08-07T09:52:11;10.00;9.80;6.80
49343;PMS5003;35210;41.606;-87.602;2023-08-07T09:54:43;10.80;8.80;5.60
49343;PMS5003;35210;41.606;-87.602;2023-08-07T09:57:11;8.60;7.40;6.00
49343;PMS5003;35210;41.606;-87.602;2023-08-07T09:59:40;5.80;4.80;3.00
49343;PMS5003;35210;41.606;-87.602;2023-08-07T10:02:08;5.00;5.00;4.00
49343;PMS5003;35210;41.606;-87.602;2023-08-07T10:04:37;9.00;7.60;5.20
49343;PMS5003;35210;41.606;-87.602;2023-08-07T10:07:05;10.40;9.20;6.20
49343;PMS5003;35210;41.606;-87.602;2023-08-07T10:09:34;9.40;8.40;5.80
49343;PMS5003;35210;41.606;-87.602;2023-08-07T10:12:04;8.40;8.40;6.60
49343;PMS5003;35210;41.606;-87.602;2023-08-07T10:14:32;8.40;8.40;6.00
49343;PMS5003;35210;41.606;-87.602;2023-08-07T10:17:01;9.00;9.00;6.80
49343;PMS5003;35210;41.606;-87.602;2023-08-07T10:19:29;8.60;6.80;6.00
49343;PMS5003;35210;41.606;-87.602;2023-08-07T10:21:58;10.40;9.80;7.80
49343;PMS5003;35210;41.606;-87.602;2023-08-07T10:24:26;7.00;7.00;4.60
49343;PMS5003;35210;41.606;-87.602;2023-08-07T10:26:56;9.80;8.60;6.00
49343;PMS5003;35210;41.606;-87.602;2023-08-07T10:29:28;10.80;10.40;7.00
49343;PMS5003;35210;41.606;-87.602;2023-08-07T10:31:57;9.40;9.40;6.80
49343;PMS5003;35210;41.606;-87.602;2023-08-07T10:34:28;9.60;9.60;6.00
49343;PMS5003;35210;41.606;-87.602;2023-08-07T10:36:57;9.80;9.80;6.00
49343;PMS5003;35210;41.606;-87.602;2023-08-07T10:39:25;10.00;10.00;6.20
49343;PMS5003;35210;41.606;-87.602;2023-08-07T10:41:53;11.80;11.00;7.20
49343;PMS5003;35210;41.606;-87.602;2023-08-07T10:44:22;11.20;10.20;7.00
49343;PMS5003;35210;41.606;-87.602;2023-08-07T10:46:53;9.60;9.60;6.00
49343;PMS5003;35210;41.606;-87.602;2023-08-07T10:49:32;9.80;7.80;5.80
49343;PMS5003;35210;41.606;-87.602;2023-08-07T10:52:02;12.20;12.20;8.60
49343;PMS5003;35210;41.606;-87.602;2023-08-07T10:54:36;9.00;9.00;5.80
49343;PMS5003;35210;41.606;-87.602;2023-08-07T10:57:10;13.80;11.40;7.20
49343;PMS5003;35210;41.606;-87.602;2023-08-07T10:59:43;12.60;12.60;8.60
49343;PMS5003;35210;41.606;-87.602;2023-08-07T11:02:21;13.00;12.40;8.20
49343;PMS5003;35210;41.606;-87.602;2023-08-07T11:04:51;11.60;11.60;8.00
49343;PMS5003;35210;41.606;-87.602;2023-08-07T11:07:24;11.60;11.60;8.80
49343;PMS5003;35210;41.606;-87.602;2023-08-07T11:09:53;12.80;12.80;8.80
49343;PMS5003;35210;41.606;-87.602;2023-08-07T11:12:24;9.60;8.20;6.60
49343;PMS5003;35210;41.606;-87.602;2023-08-07T11:14:52;11.40;10.20;8.00
49343;PMS5003;35210;41.606;-87.602;2023-08-07T11:17:25;12.00;12.00;7.00
49343;PMS5003;35210;41.606;-87.602;2023-08-07T11:19:53;9.80;9.80;8.00
49343;PMS5003;35210;41.606;-87.602;2023-08-07T11:22:22;10.00;10.00;8.00
49343;PMS5003;35210;41.606;-87.602;2023-08-07T11:24:50;10.40;10.40;7.00
49343;PMS5003;35210;41.606;-87.602;2023-08-07T11:27:20;10.20;10.20;5.80
49343;PMS5003;35210;41.606;-87.602;2023-08-07T11:29:49;12.40;9.80;7.00
49343;PMS5003;35210;41.606;-87.602;2023-08-07T11:32:17;8.60;8.60;6.20
49343;PMS5003;35210;41.606;-87.602;2023-08-07T11:34:50;9.20;7.00;5.40
49343;PMS5003;35210;41.606;-87.602;2023-08-07T11:37:18;8.60;8.00;5.00
49343;PMS5003;35210;41.606;-87.602;2023-08-07T11:39:46;7.80;7.80;6.00
49343;PMS5003;35210;41.606;-87.602;2023-08-07T11:42:15;7.80;7.80;5.20
49343;PMS5003;35210;41.606;-87.602;2023-08-07T11:44:43;7.40;7.40;5.00
49343;PMS5003;35210;41.606;-87.602;2023-08-07T11:47:12;8.00;7.20;5.00
49343;PMS5003;35210;41.606;-87.602;2023-08-07T11:49:42;6.60;6.00;4.00
49343;PMS5003;35210;41.606;-87.602;2023-08-07T11:52:11;3.80;3.80;3.20
49343;PMS5003;35210;41.606;-87.602;2023-08-07T11:54:40;7.00;6.00;4.80
49343;PMS5003;35210;41.606;-87.602;2023-08-07T11:57:15;6.20;6.00;4.00
49343;PMS5003;35210;41.606;-87.602;2023-08-07T11:59:47;4.40;4.40;2.40
49343;PMS5003;35210;41.606;-87.602;2023-08-07T12:02:21;6.20;6.00;3.20
49343;PMS5003;35210;41.606;-87.602;2023-08-07T12:04:51;5.00;5.00;3.40
49343;PMS5003;35210;41.606;-87.602;2023-08-07T12:07:25;4.80;4.80;3.00
49343;PMS5003;35210;41.606;-87.602;2023-08-07T12:09:55;5.60;4.60;2.60
49343;PMS5003;35210;41.606;-87.602;2023-08-07T12:12:23;5.00;5.00;4.00
49343;PMS5003;35210;41.606;-87.602;2023-08-07T12:14:52;5.80;4.60;3.20
49343;PMS5003;35210;41.606;-87.602;2023-08-07T12:17:21;3.60;2.80;2.00
49343;PMS5003;35210;41.606;-87.602;2023-08-07T12:19:50;6.20;5.80;3.00
49343;PMS5003;35210;41.606;-87.602;2023-08-07T12:22:19;6.20;6.20;4.00
49343;PMS5003;35210;41.606;-87.602;2023-08-07T12:24:49;3.00;3.00;2.20
49343;PMS5003;35210;41.606;-87.602;2023-08-07T12:27:17;7.00;7.00;4.40
49343;PMS5003;35210;41.606;-87.602;2023-08-07T12:29:45;5.40;5.40;5.00
49343;PMS5003;35210;41.606;-87.602;2023-08-07T12:32:13;7.00;7.00;4.80
49343;PMS5003;35210;41.606;-87.602;2023-08-07T12:34:41;5.80;5.00;3.00
49343;PMS5003;35210;41.606;-87.602;2023-08-07T12:37:09;9.80;9.80;5.40
49343;PMS5003;35210;41.606;-87.602;2023-08-07T12:39:38;7.20;7.20;5.60
49343;PMS5003;35210;41.606;-87.602;2023-08-07T12:42:08;9.60;8.00;6.00
49343;PMS5003;35210;41.606;-87.602;2023-08-07T12:44:36;7.40;7.20;5.00
49343;PMS5003;35210;41.606;-87.602;2023-08-07T12:47:04;10.80;9.40;5.40
49343;PMS5003;35210;41.606;-87.602;2023-08-07T12:49:33;7.60;6.00;4.00
49343;PMS5003;35210;41.606;-87.602;2023-08-07T12:52:01;13.80;10.00;7.80
49343;PMS5003;35210;41.606;-87.602;2023-08-07T12:54:29;13.00;8.80;6.80
49343;PMS5003;35210;41.606;-87.602;2023-08-07T12:56:57;9.00;9.00;6.80
49343;PMS5003;35210;41.606;-87.602;2023-08-07T12:59:27;9.80;8.60;5.80
49343;PMS5003;35210;41.606;-87.602;2023-08-07T13:01:55;8.40;7.40;5.20
49343;PMS5003;35210;41.606;-87.602;2023-08-07T13:04:23;12.60;9.00;6.60
49343;PMS5003;35210;41.606;-87.602;2023-08-07T13:06:51;8.20;7.60;6.00
49343;PMS5003;35210;41.606;-87.602;2023-08-07T13:09:19;8.60;7.80;5.80
49343;PMS5003;35210;41.606;-87.602;2023-08-07T13:11:47;4.80;3.00;0.00
49343;PMS5003;35210;41.606;-87.602;2023-08-07T13:14:15;8.80;8.60;6.00
49343;PMS5003;35210;41.606;-87.602;2023-08-07T13:16:45;8.40;8.20;6.00
49343;PMS5003;35210;41.606;-87.602;2023-08-07T13:19:15;9.00;9.00;7.00
49343;PMS5003;35210;41.606;-87.602;2023-08-07T13:21:43;9.60;9.60;6.60
49343;PMS5003;35210;41.606;-87.602;2023-08-07T13:24:11;12.20;10.60;7.40
49343;PMS5003;35210;41.606;-87.602;2023-08-07T13:26:40;8.40;8.40;6.40
49343;PMS5003;35210;41.606;-87.602;2023-08-07T13:29:10;14.00;12.00;8.00
49343;PMS5003;35210;41.606;-87.602;2023-08-07T13:31:38;13.40;11.40;7.00
49343;PMS5003;35210;41.606;-87.602;2023-08-07T13:34:09;11.80;11.80;8.40
49343;PMS5003;35210;41.606;-87.602;2023-08-07T13:36:38;10.40;10.40;6.20
49343;PMS5003;35210;41.606;-87.602;2023-08-07T13:39:07;12.40;11.00;7.80
49343;PMS5003;35210;41.606;-87.602;2023-08-07T13:41:35;12.60;11.80;8.80
49343;PMS5003;35210;41.606;-87.602;2023-08-07T13:44:03;12.20;12.20;9.80
49343;PMS5003;35210;41.606;-87.602;2023-08-07T13:46:31;15.20;13.60;9.00
49343;PMS5003;35210;41.606;-87.602;2023-08-07T13:48:59;15.20;14.20;9.00
49343;PMS5003;35210;41.606;-87.602;2023-08-07T13:51:29;13.80;11.60;8.00
49343;PMS5003;35210;41.606;-87.602;2023-08-07T13:53:57;13.80;13.80;9.80